Time;durP1;ratioP1;P1;durP2;ratioP2;P2;SDS_P1;SDS_P2;PMS_P1;PMS_P2;Temp;Humidity;BMP_temperature;BMP_pressure;BME280_temperature;BME280_humidity;BME280_pressure;Samples;Min_cycle;Max_cycle;Signal;HPM_P1;HPM_P2
2021/06/13 00:00:50;;;;;;;7.03;6.53;;;;;;;20.44;66.77;99513.91;4995406;28;20251;-80
2021/06/13 00:03:17;;;;;;;6.97;6.37;;;;;;;20.48;66.54;99522.31;4979715;28;20236;-87
2021/06/13 00:05:43;;;;;;;7.23;6.53;;;;;;;20.46;67.37;99513.63;4979498;28;20278;-82
2021/06/13 00:08:10;;;;;;;7.60;7.00;;;;;;;20.45;67.50;99501.94;4994926;28;20341;-88
2021/06/13 00:10:37;;;;;;;6.83;6.33;;;;;;;20.43;67.41;99504.13;4995230;28;20326;-90
2021/06/13 00:13:04;;;;;;;7.20;6.50;;;;;;;20.51;67.13;99517.13;4995340;28;20236;-81
2021/06/13 00:15:30;;;;;;;7.40;6.70;;;;;;;20.42;67.56;99509.88;4995391;28;20277;-85
2021/06/13 00:17:57;;;;;;;7.83;7.23;;;;;;;20.43;67.77;99517.75;4995168;28;20639;-86
2021/06/13 00:20:28;;;;;;;7.40;6.80;;;;;;;20.42;68.37;99523.47;4978775;28;20282;-87
2021/06/13 00:22:55;;;;;;;7.47;6.90;;;;;;;20.36;68.09;99514.53;4995136;28;20318;-87
2021/06/13 00:25:23;;;;;;;7.33;6.63;;;;;;;20.39;68.40;99521.31;4978735;28;20239;-83
2021/06/13 00:27:49;;;;;;;6.97;6.37;;;;;;;20.38;68.57;99525.97;4978649;28;20282;-82
2021/06/13 00:30:16;;;;;;;7.43;6.90;;;;;;;20.37;68.87;99532.50;4978304;28;20351;-81
2021/06/13 00:32:43;;;;;;;8.23;7.43;;;;;;;20.39;69.35;99537.66;4995160;28;20224;-84
2021/06/13 00:35:11;;;;;;;8.23;7.53;;;;;;;20.34;69.63;99554.84;4978806;28;20262;-87
2021/06/13 00:37:38;;;;;;;8.50;7.80;;;;;;;20.36;69.94;99552.63;4978788;28;20635;-91
2021/06/13 00:40:06;;;;;;;8.20;7.53;;;;;;;20.34;70.12;99552.13;4978397;28;20223;-83
2021/06/13 00:42:35;;;;;;;9.13;8.23;;;;;;;20.29;70.53;99546.69;4994991;28;20226;-87
2021/06/13 00:45:05;;;;;;;8.70;7.90;;;;;;;20.20;70.49;99537.50;4962716;28;20227;-87
2021/06/13 00:47:32;;;;;;;8.73;7.83;;;;;;;20.30;70.45;99552.91;4962390;28;20235;-84
2021/06/13 00:50:00;;;;;;;8.83;8.13;;;;;;;20.16;70.83;99544.59;4978508;28;20227;-83
2021/06/13 00:52:27;;;;;;;9.23;8.50;;;;;;;20.25;71.44;99569.31;4978429;28;20297;-81
2021/06/13 00:54:57;;;;;;;8.80;8.10;;;;;;;20.12;71.29;99559.84;4979189;28;20569;-83
2021/06/13 00:57:24;;;;;;;9.20;8.40;;;;;;;20.14;71.60;99553.06;4962544;28;20235;-87
2021/06/13 00:59:51;;;;;;;8.90;8.20;;;;;;;20.03;71.95;99551.50;4978292;28;20610;-86
2021/06/13 01:02:18;;;;;;;8.40;7.60;;;;;;;19.98;71.61;99546.09;4994339;28;20227;-87
2021/06/13 01:04:45;;;;;;;8.40;7.70;;;;;;;20.02;70.55;99551.78;4978762;28;20223;-84
2021/06/13 01:07:41;;;;;;;7.93;7.33;;;;;;;20.13;69.03;99553.31;4962501;28;20274;-88
2021/06/13 01:10:24;;;;;;;7.87;7.20;;;;;;;20.11;69.32;99563.69;4970907;28;20223;-84
2021/06/13 01:12:56;;;;;;;7.23;6.60;;;;;;;20.02;67.99;99573.53;4994678;28;20231;-83
2021/06/13 01:15:27;;;;;;;7.13;6.23;;;;;;;20.15;66.66;99572.91;4962736;28;20236;-82
2021/06/13 01:18:02;;;;;;;7.63;6.93;;;;;;;20.07;67.54;99566.16;4978385;28;20231;-88
2021/06/13 01:20:34;;;;;;;7.37;6.73;;;;;;;20.05;68.17;99564.81;4962243;28;20255;-90
2021/06/13 01:23:19;;;;;;;7.30;6.60;;;;;;;19.99;67.57;99583.06;4994633;28;20239;-84
2021/06/13 01:26:24;;;;;;;6.60;6.00;;;;;;;19.98;65.65;99580.63;5005208;28;20289;-84
2021/06/13 01:29:06;;;;;;;7.57;6.70;;;;;;;19.97;65.82;99563.50;4980971;28;20254;-80
2021/06/13 01:31:46;;;;;;;7.60;6.90;;;;;;;19.94;66.40;99558.63;4997583;28;20265;-84
2021/06/13 01:34:26;;;;;;;6.90;6.30;;;;;;;20.02;66.86;99568.91;4981724;28;20234;-80
2021/06/13 01:36:55;;;;;;;6.43;5.83;;;;;;;19.86;65.04;99555.72;4982153;28;20302;-90
2021/06/13 01:39:27;;;;;;;7.13;5.50;;;;;;;19.84;64.82;99579.63;4982949;28;20247;-83
2021/06/13 01:42:02;;;;;;;5.00;4.60;;;;;;;19.94;61.82;99571.41;4986519;28;20238;-84
2021/06/13 01:44:33;;;;;;;5.20;4.70;;;;;;;19.84;62.49;99576.91;4986486;28;20306;-85
2021/06/13 01:47:02;;;;;;;4.23;3.83;;;;;;;19.84;59.42;99575.00;4985643;28;20731;-86
2021/06/13 01:49:30;;;;;;;4.20;3.80;;;;;;;19.93;59.12;99583.38;4985507;28;20226;-81
2021/06/13 01:51:58;;;;;;;5.93;3.87;;;;;;;19.79;58.85;99580.47;4985146;28;20644;-82
2021/06/13 01:54:30;;;;;;;5.23;3.87;;;;;;;19.63;58.39;99587.91;4985578;28;20234;-80
2021/06/13 01:56:59;;;;;;;4.20;3.70;;;;;;;19.78;57.26;99587.81;4985321;28;20219;-80
2021/06/13 01:59:39;;;;;;;5.93;3.77;;;;;;;19.61;57.13;99579.22;4986264;28;20519;-87
2021/06/13 02:02:07;;;;;;;3.97;3.50;;;;;;;19.61;56.70;99600.97;4984796;28;20230;-81
2021/06/13 02:04:39;;;;;;;5.47;3.57;;;;;;;19.54;57.50;99596.94;4985875;28;20227;-84
2021/06/13 02:07:10;;;;;;;3.53;3.20;;;;;;;19.63;56.73;99595.25;5001974;28;20662;-84
2021/06/13 02:09:38;;;;;;;3.60;3.23;;;;;;;19.44;56.05;99597.78;5000997;28;20234;-78
2021/06/13 02:12:08;;;;;;;3.50;3.20;;;;;;;19.42;56.00;99602.63;4984527;28;20225;-80
2021/06/13 02:14:47;;;;;;;3.33;3.03;;;;;;;19.44;56.14;99611.38;4971670;28;20223;-80
2021/06/13 02:17:17;;;;;;;5.47;3.10;;;;;;;19.41;55.43;99611.09;4985468;28;20233;-85
2021/06/13 02:19:51;;;;;;;4.23;2.93;;;;;;;19.46;55.20;99630.09;4985477;28;20681;-86
2021/06/13 02:22:22;;;;;;;3.20;2.50;;;;;;;19.33;54.12;99626.03;4985034;28;20309;-84
2021/06/13 02:24:52;;;;;;;3.20;2.90;;;;;;;19.10;54.70;99615.78;5001320;28;20227;-80
2021/06/13 02:27:22;;;;;;;3.83;2.83;;;;;;;18.99;54.77;99623.13;4985583;28;20207;-82
2021/06/13 02:29:51;;;;;;;2.93;2.63;;;;;;;19.07;55.28;99644.31;4984801;28;20238;-84
2021/06/13 02:32:19;;;;;;;3.30;2.77;;;;;;;19.03;55.81;99653.28;4984417;28;20230;-81
2021/06/13 02:34:47;;;;;;;4.23;3.07;;;;;;;18.97;56.37;99660.63;5001210;28;20504;-80
2021/06/13 02:37:17;;;;;;;3.30;2.93;;;;;;;18.68;57.60;99660.38;4985179;28;20289;-80
2021/06/13 02:39:44;;;;;;;3.87;3.30;;;;;;;18.71;58.17;99659.81;4984442;28;20222;-82
2021/06/13 02:42:19;;;;;;;4.17;3.40;;;;;;;18.73;58.43;99673.13;5000182;28;20318;-79
2021/06/13 02:44:50;;;;;;;3.93;2.80;;;;;;;18.72;56.90;99661.44;5000044;28;20223;-87
2021/06/13 02:47:18;;;;;;;2.90;2.70;;;;;;;18.73;56.15;99667.69;4984042;28;20250;-86
2021/06/13 02:49:44;;;;;;;3.00;2.30;;;;;;;18.54;54.25;99656.56;4983559;28;20226;-86
2021/06/13 02:52:20;;;;;;;5.70;2.40;;;;;;;18.63;54.62;99665.78;4999893;28;20527;-84
2021/06/13 02:54:48;;;;;;;3.97;2.43;;;;;;;18.42;53.94;99666.84;4983624;28;20230;-79
2021/06/13 02:57:35;;;;;;;3.33;2.57;;;;;;;18.60;53.23;99677.19;5000192;28;20555;-85
2021/06/13 03:00:10;;;;;;;3.23;2.23;;;;;;;18.66;53.63;99678.00;4983131;28;20233;-84
2021/06/13 03:02:45;;;;;;;3.93;2.37;;;;;;;18.73;53.16;99673.94;4984645;28;20233;-80
2021/06/13 03:05:13;;;;;;;4.50;2.30;;;;;;;18.63;53.39;99670.41;4983570;28;20234;-79
2021/06/13 03:07:43;;;;;;;3.80;2.00;;;;;;;18.66;53.47;99686.16;4967757;28;20239;-84
2021/06/13 03:10:10;;;;;;;3.10;2.10;;;;;;;18.56;53.13;99678.00;4982919;28;20238;-86
2021/06/13 03:12:38;;;;;;;2.53;2.00;;;;;;;18.49;52.86;99676.34;4983555;28;20227;-82
2021/06/13 03:15:07;;;;;;;4.10;1.83;;;;;;;18.42;52.21;99681.22;4983744;28;20645;-80
2021/06/13 03:17:35;;;;;;;3.60;2.10;;;;;;;18.58;51.70;99687.50;4999970;28;20265;-81
2021/06/13 03:20:04;;;;;;;3.23;1.70;;;;;;;18.65;51.19;99695.38;4982708;28;20564;-82
2021/06/13 03:22:36;;;;;;;3.60;2.20;;;;;;;18.71;51.12;99692.38;4983472;28;20685;-82
2021/06/13 03:25:04;;;;;;;2.57;1.90;;;;;;;18.69;50.60;99700.00;4983218;28;20239;-81
2021/06/13 03:27:34;;;;;;;2.33;1.83;;;;;;;18.69;50.73;99689.13;4967853;28;20226;-86
2021/06/13 03:30:05;;;;;;;3.17;1.83;;;;;;;18.82;50.54;99695.91;4982722;28;20315;-81
2021/06/13 03:32:37;;;;;;;2.67;2.10;;;;;;;18.83;50.45;99697.53;4983874;28;20226;-83
2021/06/13 03:35:06;;;;;;;4.53;1.93;;;;;;;18.69;51.41;99691.03;4983364;28;20234;-88
2021/06/13 03:37:34;;;;;;;3.80;1.80;;;;;;;18.43;51.19;99692.84;4998999;28;20313;-82
2021/06/13 03:40:03;;;;;;;3.00;2.10;;;;;;;18.45;51.44;99693.41;4982640;28;20227;-84
2021/06/13 03:42:30;;;;;;;3.80;1.80;;;;;;;18.49;51.24;99711.59;4983278;28;20246;-81
2021/06/13 03:44:57;;;;;;;3.07;1.90;;;;;;;18.51;51.48;99695.06;4999113;28;20309;-86
2021/06/13 03:47:24;;;;;;;3.80;1.80;;;;;;;18.59;50.84;99707.31;4999120;28;20227;-81
2021/06/13 03:49:52;;;;;;;2.87;1.60;;;;;;;18.74;50.16;99715.47;4987299;28;20253;-81
2021/06/13 03:52:20;;;;;;;3.40;1.67;;;;;;;18.80;49.63;99703.53;5031135;28;20597;-88
2021/06/13 03:54:47;;;;;;;4.17;1.80;;;;;;;19.06;49.01;99726.84;4998953;28;20231;-82
2021/06/13 03:57:14;;;;;;;5.20;2.33;;;;;;;19.08;48.52;99718.44;5016285;28;20255;-84
2021/06/13 03:59:42;;;;;;;3.40;1.60;;;;;;;19.27;48.80;99728.44;4998547;28;20237;-83
2021/06/13 04:02:10;;;;;;;2.97;1.93;;;;;;;19.91;47.52;99721.53;5013716;28;20240;-83
2021/06/13 04:04:40;;;;;;;3.77;1.50;;;;;;;20.46;45.64;99723.16;5015017;28;20240;-87
2021/06/13 04:07:08;;;;;;;2.67;1.70;;;;;;;21.03;44.39;99728.72;5014853;28;20227;-80
2021/06/13 04:09:39;;;;;;;3.30;1.40;;;;;;;21.49;42.74;99731.84;5014729;28;20290;-81
2021/06/13 04:12:08;;;;;;;2.93;1.70;;;;;;;21.56;42.55;99744.34;5030766;28;20227;-79
2021/06/13 04:14:35;;;;;;;4.17;1.60;;;;;;;22.18;42.21;99735.97;4998949;28;20245;-79
2021/06/13 04:17:02;;;;;;;3.50;1.60;;;;;;;22.66;40.87;99744.84;5014706;28;20226;-87
2021/06/13 04:19:30;;;;;;;3.93;1.80;;;;;;;22.81;40.96;99747.38;5014581;28;20246;-85
2021/06/13 04:21:57;;;;;;;3.63;1.57;;;;;;;23.15;40.02;99751.72;5030821;28;20313;-84
2021/06/13 04:24:25;;;;;;;2.43;1.20;;;;;;;23.97;38.71;99763.63;5030523;28;20620;-87
2021/06/13 04:26:55;;;;;;;2.97;1.57;;;;;;;24.24;37.49;99751.06;5014399;28;20223;-87
2021/06/13 04:29:21;;;;;;;2.73;1.60;;;;;;;24.41;36.70;99768.47;5014614;28;20231;-80
2021/06/13 04:31:48;;;;;;;4.23;1.60;;;;;;;24.43;37.13;99796.38;4998160;28;20708;-85
2021/06/13 04:34:15;;;;;;;2.00;1.67;;;;;;;25.21;36.22;99841.75;5014141;28;20223;-83
2021/06/13 04:36:42;;;;;;;4.33;1.77;;;;;;;25.21;36.11;99819.81;4982162;28;20281;-83
2021/06/13 04:39:09;;;;;;;3.83;1.67;;;;;;;23.91;37.68;99747.63;4998122;28;20254;-82
2021/06/13 04:41:39;;;;;;;5.63;2.20;;;;;;;23.55;39.39;99753.78;5030473;28;20641;-80
2021/06/13 04:44:06;;;;;;;4.23;2.00;;;;;;;23.18;40.02;99765.63;5030627;28;20250;-82
2021/06/13 04:46:32;;;;;;;4.77;2.00;;;;;;;22.79;41.33;99763.25;4998255;28;20243;-82
2021/06/13 04:48:59;;;;;;;4.07;1.87;;;;;;;22.74;41.49;99770.69;4998227;28;20233;-80
2021/06/13 04:51:27;;;;;;;2.40;1.87;;;;;;;22.34;42.09;99764.69;4998315;28;20227;-82
2021/06/13 04:54:02;;;;;;;3.17;2.00;;;;;;;22.05;41.15;99774.06;5014123;28;20319;-86
2021/06/13 04:56:51;;;;;;;4.33;1.60;;;;;;;21.31;41.03;99767.19;5014197;28;20257;-84
2021/06/13 04:59:18;;;;;;;2.90;1.70;;;;;;;21.17;41.54;99763.50;5013763;28;20590;-83
2021/06/13 05:01:45;;;;;;;2.50;1.70;;;;;;;21.39;41.82;99782.91;4997930;28;20702;-79
2021/06/13 05:04:12;;;;;;;1.53;1.30;;;;;;;20.69;41.75;99766.00;4998119;28;20242;-80
2021/06/13 05:06:45;;;;;;;3.27;1.60;;;;;;;20.58;41.56;99759.81;5015538;28;20708;-86
2021/06/13 05:09:12;;;;;;;3.80;1.80;;;;;;;20.53;42.36;99778.09;5030584;28;20246;-81
2021/06/13 05:11:39;;;;;;;3.97;1.40;;;;;;;20.77;42.17;99761.88;5014558;28;20310;-87
2021/06/13 05:14:06;;;;;;;3.23;1.50;;;;;;;20.33;42.15;99779.03;4999819;28;20317;-79
2021/06/13 05:16:34;;;;;;;3.87;1.50;;;;;;;20.53;41.52;99778.09;5001959;28;20603;-84
2021/06/13 05:19:01;;;;;;;2.97;1.47;;;;;;;20.48;41.37;99768.03;5018350;28;20238;-79
2021/06/13 05:21:27;;;;;;;2.90;1.40;;;;;;;20.69;41.68;99781.53;5018374;28;20289;-83
2021/06/13 05:23:54;;;;;;;3.17;1.60;;;;;;;20.75;41.88;99780.41;5018114;28;20403;-88
2021/06/13 05:26:21;;;;;;;2.53;1.50;;;;;;;20.46;40.75;99788.47;5014522;28;20274;-80
2021/06/13 05:28:48;;;;;;;4.53;1.47;;;;;;;20.62;41.06;99787.31;5015046;28;20239;-83
2021/06/13 05:31:14;;;;;;;4.10;1.60;;;;;;;21.00;41.10;99791.09;4998649;28;20516;-88
2021/06/13 05:33:41;;;;;;;2.73;1.40;;;;;;;21.13;41.07;99786.94;4998969;28;20230;-83
2021/06/13 05:36:08;;;;;;;4.07;1.50;;;;;;;21.04;40.29;99790.25;4999191;28;20327;-81
2021/06/13 05:38:35;;;;;;;3.47;1.50;;;;;;;21.11;39.87;99787.22;4982498;28;20223;-80
2021/06/13 05:41:02;;;;;;;4.73;1.40;;;;;;;20.80;40.31;99781.19;4999600;28;20278;-86
2021/06/13 05:43:29;;;;;;;4.40;1.50;;;;;;;21.15;38.74;99773.88;4998571;28;20270;-82
2021/06/13 05:45:58;;;;;;;3.90;1.33;;;;;;;21.04;39.37;99775.84;5014563;28;20285;-82
2021/06/13 05:48:25;;;;;;;3.47;1.47;;;;;;;21.24;39.71;99793.94;5014107;28;20297;-82
2021/06/13 05:50:52;;;;;;;2.87;1.50;;;;;;;20.91;39.25;99796.34;5014594;28;20251;-83
2021/06/13 05:53:18;;;;;;;2.60;1.13;;;;;;;20.82;37.16;99817.13;4966010;28;20246;-87
2021/06/13 05:55:45;;;;;;;3.40;1.20;;;;;;;20.74;37.88;99795.13;4998182;28;20272;-84
2021/06/13 05:58:12;;;;;;;1.33;1.17;;;;;;;20.74;37.97;99806.00;5013951;28;20233;-81
2021/06/13 06:00:39;;;;;;;2.77;1.20;;;;;;;20.42;38.43;99823.59;4997643;28;20231;-82
2021/06/13 06:03:06;;;;;;;2.10;1.20;;;;;;;20.47;39.10;99801.81;4997841;28;20281;-80
2021/06/13 06:05:34;;;;;;;2.30;1.27;;;;;;;20.79;38.72;99805.97;5014079;28;20309;-88
2021/06/13 06:08:02;;;;;;;2.97;1.00;;;;;;;20.60;37.51;99812.09;5013625;28;20231;-79
2021/06/13 06:10:30;;;;;;;2.17;1.43;;;;;;;20.71;38.63;99806.59;4997833;28;20244;-85
2021/06/13 06:13:00;;;;;;;2.90;1.30;;;;;;;20.66;38.32;99804.69;4965556;28;20231;-82
2021/06/13 06:15:30;;;;;;;2.57;1.00;;;;;;;21.09;38.66;99816.66;5013467;28;20254;-86
2021/06/13 06:17:57;;;;;;;3.40;1.40;;;;;;;20.72;38.07;99811.72;4998071;28;20231;-88
2021/06/13 06:20:26;;;;;;;4.13;1.60;;;;;;;20.76;38.13;99823.72;4996669;28;20238;-79
2021/06/13 06:22:54;;;;;;;3.23;1.20;;;;;;;20.97;37.48;99819.75;4980620;28;20227;-87
2021/06/13 06:25:22;;;;;;;1.77;1.17;;;;;;;20.53;36.30;99800.66;4980537;28;20269;-89
2021/06/13 06:27:50;;;;;;;3.33;1.17;;;;;;;20.49;36.94;99813.22;5013861;28;20231;-79
2021/06/13 06:30:17;;;;;;;4.80;1.50;;;;;;;20.68;37.33;99821.56;5013603;28;20311;-89
2021/06/13 06:32:44;;;;;;;1.77;1.10;;;;;;;20.86;37.12;99826.34;4996912;28;20227;-83
2021/06/13 06:35:13;;;;;;;6.67;1.30;;;;;;;20.88;37.49;99817.91;4998610;28;20726;-89
2021/06/13 06:37:41;;;;;;;4.03;1.23;;;;;;;20.91;36.85;99828.22;5013725;28;20259;-83
2021/06/13 06:40:10;;;;;;;3.47;1.30;;;;;;;21.03;36.89;99831.41;4997179;28;20694;-85
2021/06/13 06:42:38;;;;;;;3.97;1.60;;;;;;;20.90;37.25;99827.41;4997284;28;20510;-84
2021/06/13 06:45:06;;;;;;;2.70;1.40;;;;;;;21.01;36.92;99826.25;5013515;28;20237;-84
2021/06/13 06:47:33;;;;;;;1.47;1.10;;;;;;;20.77;37.00;99835.38;5013634;28;20228;-78
2021/06/13 06:50:04;;;;;;;3.80;1.40;;;;;;;20.99;37.09;99825.72;4996833;28;20251;-85
2021/06/13 06:52:31;;;;;;;3.93;1.30;;;;;;;20.84;36.73;99820.38;4997342;28;20226;-80
2021/06/13 06:54:59;;;;;;;2.37;1.40;;;;;;;21.11;37.13;99830.81;4998303;28;20238;-81
2021/06/13 06:57:26;;;;;;;3.13;1.60;;;;;;;21.32;37.50;99836.97;4997093;28;20246;-79
2021/06/13 06:59:53;;;;;;;4.97;1.67;;;;;;;21.65;36.76;99846.22;5012949;28;20282;-84
2021/06/13 07:02:20;;;;;;;1.27;1.10;;;;;;;21.85;36.04;99841.34;4996729;28;20227;-85
2021/06/13 07:04:47;;;;;;;4.63;1.40;;;;;;;21.46;36.38;99844.16;5013286;28;20303;-86
2021/06/13 07:07:14;;;;;;;4.53;1.37;;;;;;;21.46;36.55;99835.22;4996945;28;20231;-82
2021/06/13 07:09:41;;;;;;;4.20;1.30;;;;;;;21.65;35.96;99855.19;4997747;28;20286;-80
2021/06/13 07:12:08;;;;;;;3.07;1.40;;;;;;;21.25;37.66;99847.34;4996499;28;20297;-83
2021/06/13 07:14:35;;;;;;;5.03;1.40;;;;;;;21.64;37.09;99859.03;4996723;28;20326;-82
2021/06/13 07:17:02;;;;;;;2.97;1.43;;;;;;;21.77;36.14;99852.91;5012910;28;20255;-84
2021/06/13 07:19:29;;;;;;;3.57;1.40;;;;;;;21.90;36.31;99862.31;4996599;28;20318;-85
2021/06/13 07:21:56;;;;;;;4.67;1.40;;;;;;;21.74;36.60;99860.84;4980379;28;20290;-83
2021/06/13 07:24:22;;;;;;;2.30;1.23;;;;;;;21.50;36.52;99850.69;5012613;28;20255;-87
2021/06/13 07:26:49;;;;;;;3.50;1.43;;;;;;;21.92;37.00;99871.84;4996151;28;20257;-87
2021/06/13 07:29:16;;;;;;;4.00;1.47;;;;;;;21.51;36.59;99859.66;4997379;28;20639;-86
2021/06/13 07:31:44;;;;;;;3.23;1.43;;;;;;;21.71;36.47;99861.41;4996221;28;20314;-82
2021/06/13 07:34:11;;;;;;;3.37;1.40;;;;;;;22.05;36.38;99864.09;5012194;28;20235;-86
2021/06/13 07:36:37;;;;;;;2.47;1.33;;;;;;;21.87;36.37;99866.44;4996280;28;20257;-86
2021/06/13 07:39:05;;;;;;;3.57;1.50;;;;;;;21.92;36.41;99850.03;5012496;28;20314;-87
2021/06/13 07:41:32;;;;;;;4.70;1.70;;;;;;;22.14;36.51;99873.28;5012493;28;20227;-87
2021/06/13 07:43:58;;;;;;;7.53;1.83;;;;;;;22.28;36.63;99880.47;4997103;28;20253;-87
2021/06/13 07:46:25;;;;;;;2.73;1.30;;;;;;;21.76;36.31;99861.34;4995877;28;20239;-87
2021/06/13 07:48:52;;;;;;;3.70;1.30;;;;;;;21.87;36.69;99866.44;4996106;28;20306;-87
2021/06/13 07:51:19;;;;;;;3.43;1.43;;;;;;;22.04;36.04;99857.00;4979908;28;20231;-80
2021/06/13 07:53:46;;;;;;;3.80;1.37;;;;;;;21.92;36.13;99862.84;4979807;28;20639;-87
2021/06/13 07:56:14;;;;;;;2.00;1.30;;;;;;;22.32;36.33;99867.06;5011336;28;20258;-86
2021/06/13 07:58:40;;;;;;;4.67;1.47;;;;;;;22.69;35.85;99863.59;4995901;28;20274;-81
2021/06/13 08:01:07;;;;;;;3.07;1.57;;;;;;;22.59;35.43;99869.19;5010907;28;20236;-87
2021/06/13 08:03:38;;;;;;;1.90;1.23;;;;;;;22.55;35.80;99871.69;5011793;28;20631;-85
2021/06/13 08:06:05;;;;;;;4.33;1.60;;;;;;;23.01;35.76;99869.19;4995845;28;20314;-85
2021/06/13 08:08:32;;;;;;;2.43;1.60;;;;;;;22.95;35.30;99862.19;4995333;28;20695;-86
2021/06/13 08:11:00;;;;;;;3.00;1.60;;;;;;;23.19;35.13;99876.56;4995653;28;20277;-87
2021/06/13 08:13:26;;;;;;;2.67;1.63;;;;;;;23.31;34.22;99876.13;5011273;28;20255;-86
2021/06/13 08:15:53;;;;;;;3.27;1.40;;;;;;;23.01;34.71;99873.81;5011712;28;20338;-86
2021/06/13 08:18:20;;;;;;;2.03;1.30;;;;;;;22.82;35.00;99871.91;4996765;28;20242;-82
2021/06/13 08:20:47;;;;;;;3.30;1.40;;;;;;;23.14;35.10;99867.66;4988330;28;20273;-87
2021/06/13 08:23:13;;;;;;;4.13;1.77;;;;;;;23.68;34.20;99867.88;5002692;28;20224;-88
2021/06/13 08:25:40;;;;;;;3.80;1.60;;;;;;;24.21;33.57;99891.31;5005412;28;20264;-86
2021/06/13 08:28:07;;;;;;;2.57;1.33;;;;;;;23.78;33.22;99882.47;5005181;28;20318;-85
2021/06/13 08:30:34;;;;;;;1.73;1.40;;;;;;;23.62;33.63;99877.25;5015700;28;20313;-85
2021/06/13 08:33:01;;;;;;;2.67;1.50;;;;;;;23.84;33.39;99881.28;5014376;28;20273;-83
2021/06/13 08:35:28;;;;;;;6.10;1.50;;;;;;;24.00;32.74;99891.66;5014847;28;20644;-84
2021/06/13 08:37:57;;;;;;;5.50;1.30;;;;;;;23.85;32.21;99894.66;4998453;28;20318;-84
2021/06/13 08:40:24;;;;;;;3.50;1.40;;;;;;;23.60;33.31;99884.97;5030757;28;20305;-82
2021/06/13 08:42:51;;;;;;;3.57;1.20;;;;;;;23.78;32.80;99879.75;5015105;28;20312;-82
2021/06/13 08:45:18;;;;;;;2.07;1.40;;;;;;;23.99;32.74;99881.00;5014944;28;20228;-87
2021/06/13 08:47:46;;;;;;;5.37;1.70;;;;;;;23.84;33.63;99881.28;5014773;28;20281;-84
2021/06/13 08:50:13;;;;;;;3.53;1.40;;;;;;;24.02;32.23;99877.66;5014868;28;20353;-85
2021/06/13 08:52:40;;;;;;;2.03;1.40;;;;;;;24.22;32.75;99874.56;5015860;28;20519;-88
2021/06/13 08:55:08;;;;;;;2.33;1.23;;;;;;;24.04;31.54;99869.94;5015744;28;20636;-90
2021/06/13 08:57:36;;;;;;;1.67;1.30;;;;;;;23.80;32.24;99880.25;4998597;28;20227;-88
2021/06/13 09:00:14;;;;;;;5.93;1.80;;;;;;;23.56;33.74;99883.13;5014460;28;20242;-79
2021/06/13 09:02:41;;;;;;;5.07;1.60;;;;;;;23.24;33.08;99870.19;4998374;28;20321;-86
2021/06/13 09:05:10;;;;;;;1.87;1.50;;;;;;;23.49;33.40;99872.56;4992664;28;20231;-87
2021/06/13 09:07:47;;;;;;;3.37;1.30;;;;;;;23.75;33.51;99883.09;5011460;28;20237;-82
2021/06/13 09:10:17;;;;;;;2.20;1.27;;;;;;;22.91;33.64;99868.53;5029371;28;20235;-82
2021/06/13 09:12:46;;;;;;;3.27;1.40;;;;;;;23.86;33.36;99877.13;4998067;28;20224;-85
2021/06/13 09:15:14;;;;;;;2.13;1.20;;;;;;;23.92;32.92;99902.47;4993464;28;20318;-85
2021/06/13 09:17:44;;;;;;;3.07;1.50;;;;;;;24.03;31.94;99887.47;5013526;28;20262;-82
2021/06/13 09:20:23;;;;;;;3.57;1.20;;;;;;;24.23;30.98;99889.88;4997455;28;20493;-89
2021/06/13 09:23:11;;;;;;;1.63;1.20;;;;;;;23.93;31.88;99895.91;5013632;28;20227;-83
2021/06/13 09:25:41;;;;;;;3.83;1.50;;;;;;;24.30;31.53;99894.97;5013522;28;20329;-82
2021/06/13 09:28:17;;;;;;;3.23;1.57;;;;;;;24.11;31.72;99884.06;5013627;28;20687;-85
2021/06/13 09:30:46;;;;;;;2.07;1.20;;;;;;;24.01;31.00;99895.19;4997470;28;20251;-88
2021/06/13 09:33:22;;;;;;;3.20;1.40;;;;;;;23.83;31.49;99894.16;4997007;28;20231;-79
2021/06/13 09:35:50;;;;;;;2.80;1.40;;;;;;;24.16;31.90;99892.22;4993915;28;20239;-85
2021/06/13 09:38:27;;;;;;;2.07;1.40;;;;;;;23.77;31.95;99881.66;4993842;28;20251;-83
2021/06/13 09:41:07;;;;;;;2.33;1.60;;;;;;;23.47;33.15;99877.50;5012626;28;20223;-83
2021/06/13 09:44:05;;;;;;;4.47;1.53;;;;;;;23.76;33.37;99896.44;4997415;28;20297;-82
2021/06/13 09:46:37;;;;;;;2.70;1.30;;;;;;;23.57;30.89;99868.31;4997440;28;20227;-84
2021/06/13 09:49:07;;;;;;;3.43;1.40;;;;;;;23.81;30.77;99876.41;4997576;28;20273;-83
2021/06/13 09:51:36;;;;;;;3.07;1.30;;;;;;;23.96;31.32;99881.59;5013669;28;20296;-84
2021/06/13 09:54:04;;;;;;;3.40;1.30;;;;;;;23.92;32.31;99869.63;5000077;28;20698;-84
2021/06/13 09:56:33;;;;;;;5.07;1.33;;;;;;;23.66;32.53;99886.50;4992015;28;20227;-83
2021/06/13 09:59:09;;;;;;;3.17;1.40;;;;;;;23.97;31.95;99889.53;4992466;28;20237;-84
2021/06/13 10:01:41;;;;;;;2.30;1.20;;;;;;;24.27;32.50;99879.94;4996602;28;20548;-80
2021/06/13 10:04:23;;;;;;;3.20;1.47;;;;;;;24.22;32.25;99882.75;4996740;28;20276;-84
2021/06/13 10:06:59;;;;;;;2.87;1.47;;;;;;;23.67;31.05;99866.25;4998531;28;20251;-81
2021/06/13 10:09:37;;;;;;;2.87;1.50;;;;;;;23.96;30.54;99874.22;4980747;28;20275;-84
2021/06/13 10:12:06;;;;;;;3.20;1.50;;;;;;;23.83;31.28;99868.72;4980745;28;20286;-84
2021/06/13 10:14:37;;;;;;;2.90;1.40;;;;;;;23.73;31.32;99868.88;4996973;28;20230;-83
2021/06/13 10:17:04;;;;;;;2.93;1.33;;;;;;;23.79;30.43;99870.44;4996872;28;20233;-82
2021/06/13 10:19:42;;;;;;;4.43;1.30;;;;;;;23.75;29.56;99872.94;4980721;28;20228;-85
2021/06/13 10:22:10;;;;;;;2.37;1.37;;;;;;;23.54;30.54;99858.00;4996701;28;20228;-82
2021/06/13 10:24:38;;;;;;;2.23;1.33;;;;;;;23.45;30.28;99859.78;4997192;28;20274;-83
2021/06/13 10:27:07;;;;;;;4.43;1.53;;;;;;;23.66;30.30;99869.25;4999856;28;21338;-84
2021/06/13 10:29:36;;;;;;;1.60;1.50;;;;;;;23.66;30.88;99869.25;4983808;28;20245;-85
2021/06/13 10:32:05;;;;;;;2.73;1.43;;;;;;;23.95;31.18;99864.38;4967122;28;20261;-84
2021/06/13 10:34:33;;;;;;;3.63;1.47;;;;;;;24.14;30.69;99867.03;4983514;28;20236;-79
2021/06/13 10:37:06;;;;;;;2.53;1.50;;;;;;;24.18;30.62;99865.31;5016953;28;20627;-84
2021/06/13 10:39:34;;;;;;;4.17;1.63;;;;;;;24.19;28.79;99868.88;4983269;28;20233;-83
2021/06/13 10:42:02;;;;;;;1.47;1.13;;;;;;;23.96;29.31;99868.72;4967463;28;20227;-82
2021/06/13 10:44:30;;;;;;;2.10;1.50;;;;;;;23.72;29.76;99861.78;4999902;28;20231;-82
2021/06/13 10:47:09;;;;;;;2.40;1.37;;;;;;;24.15;30.08;99860.44;4999465;28;20264;-83
2021/06/13 10:49:47;;;;;;;3.73;1.57;;;;;;;24.42;31.21;99865.13;4999697;28;20290;-79
2021/06/13 10:52:21;;;;;;;4.23;1.70;;;;;;;24.57;31.43;99875.78;4983172;28;20236;-84
2021/06/13 10:54:51;;;;;;;3.07;1.47;;;;;;;24.67;30.61;99864.59;4999564;28;20285;-82
2021/06/13 10:57:17;;;;;;;2.73;1.43;;;;;;;24.97;30.50;99868.63;5016574;28;20232;-82
2021/06/13 10:59:55;;;;;;;4.60;1.80;;;;;;;24.82;30.86;99855.25;4999026;28;20723;-80
2021/06/13 11:02:24;;;;;;;1.73;1.43;;;;;;;24.73;30.77;99868.84;4982885;28;20252;-83
2021/06/13 11:05:01;;;;;;;1.93;1.30;;;;;;;24.75;29.70;99850.19;4983067;28;20637;-82
2021/06/13 11:07:43;;;;;;;2.30;1.27;;;;;;;24.91;30.18;99861.66;4983249;28;20228;-82
2021/06/13 11:10:14;;;;;;;2.70;1.53;;;;;;;24.83;29.58;99852.19;4998475;28;20596;-81
2021/06/13 11:12:47;;;;;;;2.97;1.50;;;;;;;24.62;29.96;99863.91;4999428;28;20226;-83
2021/06/13 11:15:28;;;;;;;2.67;1.50;;;;;;;24.92;29.28;99844.06;4983757;28;20265;-84
2021/06/13 11:18:01;;;;;;;3.00;1.40;;;;;;;25.49;29.71;99853.38;5016893;28;20275;-81
2021/06/13 11:20:47;;;;;;;4.10;1.30;;;;;;;25.21;28.84;99849.16;4983080;28;20231;-79
2021/06/13 11:23:15;;;;;;;3.27;1.30;;;;;;;24.94;28.65;99850.88;5017028;28;20281;-83
2021/06/13 11:25:42;;;;;;;4.73;1.77;;;;;;;24.75;28.61;99841.97;4999484;28;20238;-82
2021/06/13 11:28:13;;;;;;;2.20;1.50;;;;;;;24.68;29.73;99857.22;4999106;28;20225;-82
2021/06/13 11:30:42;;;;;;;3.67;1.53;;;;;;;24.79;29.97;99842.97;4999838;28;20307;-84
2021/06/13 11:33:10;;;;;;;1.60;1.50;;;;;;;24.88;29.75;99843.06;4999570;28;20226;-84
2021/06/13 11:35:43;;;;;;;2.60;1.57;;;;;;;24.78;29.28;99833.13;4999382;28;20315;-82
2021/06/13 11:38:11;;;;;;;4.40;1.80;;;;;;;24.90;29.62;99838.09;4998906;28;20249;-83
2021/06/13 11:40:46;;;;;;;2.57;1.70;;;;;;;24.93;29.47;99837.47;4999286;28;20637;-83
2021/06/13 11:43:15;;;;;;;1.77;1.40;;;;;;;25.09;28.92;99835.19;4983151;28;20296;-82
2021/06/13 11:45:55;;;;;;;4.77;1.53;;;;;;;25.34;29.40;99837.31;4998324;28;20383;-81